SBRJSGES

Guest
Details From SBRJ - Santos-dumont
To SGES - Guarani Intl
Flight Number -
Tags Generated
Created
Modified
Stats Distance 658 nm / 1,219 km
Max Altitude 0 ft / 0 m
Waypoints 4
Social Downloads 1
Likes 0
Share VATSIM

Download

Looking for another format? Having issues loading an existing format? Contact us
Advertisement - Login to hide

Notes

Generated

Route

SBRJ ALBER GAXAS SGES

ID Type Via Altitude Latitude Longitude Leg Dist Tot Dist Heading (true) Name
O SBRJ APT - 0 ft / 0 m -22.91603˚ -43.16328˚ - 0 nm - -
ALBER FIX - 0 ft / 0 m -23.93308˚ -47.34158˚ 238 nm 238 nm 254° / 256° -
GAXAS FIX - 0 ft / 0 m -25.40250˚ -54.51111˚ 401 nm 639 nm 256° / 259° -
O SGES APT - 0 ft / 0 m -25.46712˚ -54.85464˚ 19 nm 658 nm 258° / 258° -

Altitude Profile

Advertisement - Login to hide

Weather


0- 5 10 15 20 25 30 35+ Temperature / ° C

Clouds and Precipitation
Forecast for 2018-05-22 18:00 UTC. Updated 38 minutes ago

Ground ~20,000 ft ~40,000 ft Winds

SBRJ

Details ICAO SBRJ (SDU)
Name Santos-Dumont
Region Brazil
Timezone Unknown (UTC+0.0)
Stats Elevation 11 ft / 3 m (AMSL)
Location -22.910460° -43.163133°
Runways 2
Magnetic Variation 22.825° W

METAR

SBRJ 221700Z 16009KT CAVOK 24/17 Q1016

Decode

TAF

TAF SBRJ 220830Z 2212/2224 01005KT CAVOK TX26/2217Z TN21/2224Z BECMG 2215/2217 17010KT BECMG 2223/2224 33005KT RMK PHQ

Decode

Departure Runways

ID Width Length Bearing (true) Bearing (mag) Surface Threshold Offset Overrun Length
02L 98 ft / 30 m 4,154 ft / 1,266 m 358.02° 20.84° Asphalt 0 ft / 0 m 80 ft / 24 m
02R 138 ft / 42 m 4,361 ft / 1,329 m 358.01° 20.83° Asphalt 0 ft / 0 m 80 ft / 24 m
20L 138 ft / 42 m 4,361 ft / 1,329 m 178.01° 200.83° Asphalt 0 ft / 0 m 80 ft / 24 m
20R 98 ft / 30 m 4,154 ft / 1,266 m 178.02° 200.84° Asphalt 0 ft / 0 m 95 ft / 29 m

SGES

Details ICAO SGES (AGT)
Name GUARANI INTL
Region Paraguay
Timezone America/Asuncion (UTC-4.0)
Stats Elevation 846 ft / 258 m (AMSL)
Location -25.455499° -54.843593°
Runways 1
Magnetic Variation 16.155° W

METAR

SGES 221700Z 00000KT 9999 BKN033 19/10 Q1020

Decode

TAF

Not found

Destination Runways

ID Width Length Bearing (true) Bearing (mag) Surface Threshold Offset Overrun Length
05 148 ft / 45 m 11,175 ft / 3,406 m 40.64° 56.79° Asphalt 0 ft / 0 m 197 ft / 60 m
23 148 ft / 45 m 11,175 ft / 3,406 m 220.63° 236.78° Asphalt 0 ft / 0 m 197 ft / 60 m

Approach Navaids

Runway Type Ident Frequency Range Bearing (true) Bearing (mag) Slope Elevation
23 Localiser ICES 111.30 MHz 18 nm / 33 km 220.63° 236.79° - 846 ft / 258 m (AMSL)
23 Glidescope ICES 111.30 MHz 10 nm / 19 km 220.63° 236.79° 3.00° 804 ft / 245 m (AMSL)